Aseki Airport


Codes: AEK/AEK
Name: Aseki Airport
City: Aseki
Country: Papua New Guinea
Elevation: 4106 ft.

Photos at Aseki Airport


   Photos courtesy of SpottingLog. You can add your own sightings and photos by signing up for a free trial today.



No photos found.

Weather at Aseki Airport


Time (UTC)DescriptionTempratureWindCloud coverageVisibilityPressureHumidity
15-Apr-2024 18:00Broken Clouds17°C7 mph, N69%10000m1013hPa96%
15-Apr-2024 21:00Broken Clouds17°C7 mph, N72%10000m1014hPa96%
16-Apr-2024 00:00Light Rain22°C4 mph, NE77%10000m1014hPa75%
16-Apr-2024 03:00Light Rain24°C2 mph, E81%10000m1010hPa71%
16-Apr-2024 06:00Moderate Rain22°C2 mph, E92%7623m1009hPa87%
16-Apr-2024 09:00Moderate Rain18°C2 mph, NE92%10000m1012hPa97%
16-Apr-2024 12:00Light Rain18°C4 mph, N93%8087m1014hPa98%
16-Apr-2024 15:00Light Rain18°C4 mph, N100%10000m1012hPa97%
16-Apr-2024 18:00Overcast Clouds17°C4 mph, N100%9322m1011hPa97%
16-Apr-2024 21:00Overcast Clouds17°C4 mph, N100%10000m1013hPa96%
17-Apr-2024 00:00Light Rain24°C2 mph, NE98%10000m1012hPa69%
17-Apr-2024 03:00Light Rain24°C2 mph, SE100%6473m1008hPa74%
17-Apr-2024 06:00Moderate Rain20°C2 mph, E99%7609m1008hPa93%
17-Apr-2024 09:00Moderate Rain19°C4 mph, NE100%347m1011hPa99%
17-Apr-2024 12:00Heavy Intensity Rain18°C2 mph, NE100%676m1011hPa99%
17-Apr-2024 15:00Heavy Intensity Rain18°C4 mph, N100%10000m1011hPa97%
17-Apr-2024 18:00Light Rain17°C4 mph, N100%10000m1010hPa97%
17-Apr-2024 21:00Light Rain17°C4 mph, N100%10000m1012hPa97%
18-Apr-2024 00:00Overcast Clouds21°C4 mph, N100%10000m1012hPa79%
18-Apr-2024 03:00Light Rain23°C2 mph, SE100%10000m1009hPa76%
18-Apr-2024 06:00Moderate Rain20°C2 mph, SE100%10000m1009hPa93%
18-Apr-2024 09:00Moderate Rain18°C0 mph, NE100%10000m1011hPa99%
18-Apr-2024 12:00Light Rain17°C4 mph, N100%10000m1013hPa97%
18-Apr-2024 15:00Overcast Clouds17°C4 mph, N99%9645m1012hPa97%
18-Apr-2024 18:00Overcast Clouds16°C4 mph, N98%10000m1011hPa97%
18-Apr-2024 21:00Overcast Clouds17°C4 mph, N99%10000m1012hPa95%
19-Apr-2024 00:00Overcast Clouds24°C2 mph, NE92%10000m1012hPa65%
19-Apr-2024 03:00Light Rain25°C2 mph, NE66%10000m1009hPa68%
19-Apr-2024 06:00Moderate Rain22°C2 mph, SE77%10000m1009hPa85%
19-Apr-2024 09:00Light Rain18°C2 mph, SE86%3281m1012hPa98%
19-Apr-2024 12:00Light Rain18°C2 mph, NE88%10000m1014hPa99%
19-Apr-2024 15:00Moderate Rain18°C2 mph, N89%10000m1013hPa98%
19-Apr-2024 18:00Light Rain17°C2 mph, N94%10000m1012hPa97%
19-Apr-2024 21:00Overcast Clouds17°C2 mph, N93%10000m1014hPa95%
20-Apr-2024 00:00Overcast Clouds24°C2 mph, E92%10000m1013hPa66%
20-Apr-2024 03:00Light Rain26°C2 mph, SE30%10000m1009hPa60%
20-Apr-2024 06:00Light Rain22°C4 mph, SE54%10000m1010hPa84%
20-Apr-2024 09:00Light Rain19°C2 mph, SE87%1228m1013hPa100%
20-Apr-2024 12:00Light Rain18°C2 mph, SE93%8471m1015hPa100%
20-Apr-2024 15:00Light Rain18°C2 mph, NE100%10000m1013hPa96%